Terminal Aerodrome Forecast
Issued by NWS Mt. Holly, NJ

Home | Current Version | Previous Version | Text Only | Print | Product List | Glossary On
Versions: 1 2 3 4 5 6 7 8 9 10 11 12 13 14 15 16 17
000
FTUS41 KPHI 230252 AAB
TAFACY
TAF AMD
KACY 230252Z 2303/2324 20010G18KT P6SM SCT008
      TEMPO 2303/2305 BKN008
     FM230500 21010G18KT P6SM BKN040
      TEMPO 2305/2307 4SM TSRA BR OVC015CB
     FM230700 22010KT P6SM -SHRA SCT020 OVC040
     FM230900 26006KT P6SM BKN040
     FM231300 32008KT P6SM BKN050
     FM231900 32008KT P6SM SCT050=

USA.gov is the U.S. government's official web portal to all federal, state and local government web resources and services.